createdAt,value
2022-08-07T00:01:44.631Z,3.47
2022-08-07T00:06:29.258Z,2.77
2022-08-07T00:11:48.049Z,3.54
2022-08-07T00:17:00.146Z,3.50
2022-08-07T00:22:04.980Z,3.49
2022-08-07T00:27:10.309Z,3.99
2022-08-07T00:32:14.364Z,4.54
2022-08-07T00:37:17.972Z,5.19
2022-08-07T00:42:25.507Z,5.14
2022-08-07T00:48:09.839Z,4.84
2022-08-07T00:52:55.687Z,4.89
2022-08-07T00:58:00.366Z,5.29
2022-08-07T01:03:03.776Z,5.89
2022-08-07T01:08:09.384Z,6.21
2022-08-07T01:13:16.314Z,6.48
2022-08-07T01:18:20.307Z,6.81
2022-08-07T01:23:38.104Z,6.58
2022-08-07T01:28:46.202Z,6.32
2022-08-07T01:33:55.643Z,6.18
2022-08-07T01:39:03.133Z,5.39
2022-08-07T01:44:13.105Z,5.57
2022-08-07T01:49:16.247Z,5.54
2022-08-07T01:54:33.299Z,5.73
2022-08-07T01:59:45.242Z,5.89
2022-08-07T02:04:56.669Z,6.03
2022-08-07T02:10:03.252Z,6.28
2022-08-07T02:15:08.629Z,6.25
2022-08-07T02:20:19.835Z,6.89
2022-08-07T02:26:10.618Z,7.09
2022-08-07T02:30:55.297Z,7.21
2022-08-07T02:36:28.520Z,7.38
2022-08-07T02:41:33.462Z,7.31
2022-08-07T02:46:46.730Z,7.51
2022-08-07T02:51:57.652Z,7.53
2022-08-07T02:57:03.645Z,7.73
2022-08-07T03:02:10.553Z,7.82
2022-08-07T03:07:15.041Z,8.18
2022-08-07T03:12:22.473Z,8.22
2022-08-07T03:17:36.446Z,8.19
2022-08-07T03:22:58.848Z,8.61
2022-08-07T03:28:09.575Z,8.43
2022-08-07T03:33:32.235Z,8.79
2022-08-07T03:38:44.273Z,8.63
2022-08-07T03:43:56.909Z,8.18
2022-08-07T03:49:02.522Z,8.12
2022-08-07T03:54:35.377Z,8.14
2022-08-07T03:59:32.849Z,7.37
2022-08-07T04:04:35.958Z,7.58
2022-08-07T04:09:45.494Z,6.97
2022-08-07T04:14:56.304Z,6.93
2022-08-07T04:19:59.545Z,6.51
2022-08-07T04:25:11.776Z,6.82
2022-08-07T04:30:35.474Z,6.66
2022-08-07T04:35:42.107Z,6.00
2022-08-07T04:40:52.773Z,6.01
2022-08-07T04:46:04.232Z,5.82
2022-08-07T04:51:11.613Z,5.03
2022-08-07T04:58:11.763Z,4.70
2022-08-07T05:01:57.636Z,4.93
2022-08-07T05:07:09.679Z,4.65
2022-08-07T05:12:30.678Z,5.09
2022-08-07T05:17:50.795Z,4.12
2022-08-07T05:23:02.370Z,3.83
2022-08-07T05:28:20.613Z,3.51
2022-08-07T05:33:28.948Z,3.15
2022-08-07T05:38:59.763Z,2.05
2022-08-07T05:44:08.182Z,0.48
2022-08-07T05:49:18.041Z,0.48
2022-08-07T05:54:30.959Z,-0.51
2022-08-07T05:59:57.143Z,-1.21
2022-08-07T06:05:07.453Z,-0.60
2022-08-07T06:10:15.285Z,-2.22
2022-08-07T06:15:20.810Z,-2.03
2022-08-07T06:20:49.350Z,-2.59
2022-08-07T06:25:54.371Z,-3.15
2022-08-07T06:31:00.306Z,-3.05
2022-08-07T06:36:11.861Z,-4.29
2022-08-07T06:41:59.146Z,-4.53
2022-08-07T06:46:53.667Z,-4.46
2022-08-07T06:52:17.587Z,-4.26
2022-08-07T06:57:43.745Z,-4.05
2022-08-07T07:02:57.448Z,-4.94
2022-08-07T07:08:06.806Z,-5.16
2022-08-07T07:13:15.293Z,-5.74
2022-08-07T07:18:47.753Z,118.32
2022-08-07T07:24:11.295Z,-5.39
2022-08-07T07:29:56.258Z,117.61
2022-08-07T07:34:44.665Z,115.78
2022-08-07T07:39:55.401Z,116.71
2022-08-07T07:45:02.310Z,115.93
2022-08-07T07:50:36.312Z,114.69
2022-08-07T07:55:37.840Z,114.52
2022-08-07T08:00:53.795Z,115.38
2022-08-07T08:05:57.743Z,114.95
2022-08-07T08:11:03.762Z,114.44
2022-08-07T08:16:12.547Z,113.96
2022-08-07T08:21:55.963Z,114.50
2022-08-07T08:27:12.216Z,114.20
2022-08-07T08:32:25.098Z,110.84
2022-08-07T08:38:01.735Z,113.06
2022-08-07T08:43:07.448Z,111.02
2022-08-07T08:48:28.299Z,109.71
2022-08-07T08:53:39.470Z,109.54
2022-08-07T08:58:54.550Z,109.07
2022-08-07T09:04:13.467Z,108.00
2022-08-07T09:09:36.528Z,108.67
2022-08-07T09:14:58.563Z,106.50
2022-08-07T09:20:35.382Z,107.71
2022-08-07T09:25:54.289Z,101.77
2022-08-07T09:31:04.059Z,104.10
2022-08-07T09:36:13.986Z,105.96
2022-08-07T09:41:27.794Z,101.22
2022-08-07T09:47:50.342Z,102.32
2022-08-07T09:52:33.594Z,99.67
2022-08-07T09:58:07.364Z,102.28
2022-08-07T10:04:06.535Z,105.16
2022-08-07T10:09:15.646Z,102.66
2022-08-07T10:14:41.009Z,101.29
2022-08-07T10:19:58.367Z,91.92
2022-08-07T10:25:13.578Z,96.42
2022-08-07T10:30:19.241Z,92.89
2022-08-07T10:35:56.028Z,90.75
2022-08-07T10:41:02.723Z,89.68
2022-08-07T10:46:10.284Z,88.86
2022-08-07T10:51:39.113Z,91.92
2022-08-07T10:56:54.802Z,93.74
2022-08-07T11:02:11.934Z,91.95
2022-08-07T11:08:00.273Z,87.03
2022-08-07T11:13:16.896Z,91.91
2022-08-07T11:18:38.978Z,91.83
2022-08-07T11:23:55.756Z,87.61
2022-08-07T11:29:13.093Z,90.47
2022-08-07T11:34:37.181Z,91.67
2022-08-07T11:40:03.524Z,89.67
2022-08-07T11:45:20.551Z,88.06
2022-08-07T11:50:57.231Z,89.59
2022-08-07T11:56:26.799Z,82.87
2022-08-07T12:01:59.512Z,86.06
2022-08-07T12:07:23.595Z,91.33
2022-08-07T12:12:38.390Z,90.53
2022-08-07T12:17:55.969Z,84.00
2022-08-07T12:24:04.935Z,83.45
2022-08-07T12:29:04.339Z,82.17
2022-08-07T12:34:11.185Z,85.49
2022-08-07T12:39:43.001Z,84.52
2022-08-07T12:44:42.945Z,84.97
2022-08-07T12:50:04.521Z,84.65
2022-08-07T12:55:16.485Z,82.94
2022-08-07T13:00:32.818Z,83.64
2022-08-07T13:06:02.787Z,84.29
2022-08-07T13:11:19.849Z,86.12
2022-08-07T13:16:31.492Z,81.65
2022-08-07T13:21:58.943Z,77.82
2022-08-07T13:27:14.933Z,84.82
2022-08-07T13:32:35.054Z,80.59
2022-08-07T13:37:55.373Z,81.28
2022-08-07T13:43:11.825Z,78.96
2022-08-07T13:48:27.779Z,80.70
2022-08-07T13:54:00.454Z,80.77
2022-08-07T13:59:10.253Z,82.50
2022-08-07T14:04:21.499Z,78.98
2022-08-07T14:10:17.420Z,79.83
2022-08-07T14:15:02.173Z,80.58
2022-08-07T14:20:39.811Z,80.06
2022-08-07T14:25:46.148Z,79.71
2022-08-07T14:30:52.530Z,78.31
2022-08-07T14:35:59.996Z,77.45
2022-08-07T14:41:12.127Z,77.18
2022-08-07T14:46:23.648Z,80.39
2022-08-07T14:52:03.639Z,78.59
2022-08-07T14:57:05.563Z,77.11
2022-08-07T15:02:31.699Z,79.32
2022-08-07T15:07:51.266Z,77.80
2022-08-07T15:13:06.105Z,78.57
2022-08-07T15:25:16.312Z,76.03
2022-08-07T15:30:10.102Z,77.92
2022-08-07T15:34:26.973Z,79.56
2022-08-07T15:39:57.799Z,80.14
2022-08-07T15:45:00.358Z,81.74
2022-08-07T15:50:06.924Z,78.56
2022-08-07T15:55:14.745Z,79.30
2022-08-07T16:00:31.847Z,82.55
2022-08-07T16:05:38.238Z,81.01
2022-08-07T16:10:48.723Z,85.03
2022-08-07T16:16:06.959Z,84.68
2022-08-07T16:21:44.113Z,86.89
2022-08-07T16:27:17.880Z,84.99
2022-08-07T16:32:33.028Z,85.27
2022-08-07T16:38:44.427Z,90.31
2022-08-07T16:44:47.011Z,84.61
2022-08-07T16:50:36.302Z,83.23
2022-08-07T16:55:53.050Z,85.14
2022-08-07T17:01:16.517Z,88.17
2022-08-07T17:06:46.533Z,91.99
2022-08-07T17:12:05.053Z,94.97
2022-08-07T17:17:46.041Z,104.31
2022-08-07T17:23:00.218Z,99.14
2022-08-07T17:28:10.149Z,99.38
2022-08-07T17:34:10.122Z,97.10
2022-08-07T17:38:52.329Z,99.19
2022-08-07T17:44:05.740Z,105.84
2022-08-07T17:49:23.208Z,107.93
2022-08-07T17:54:39.899Z,109.55
2022-08-07T18:00:01.912Z,111.48
2022-08-07T18:05:21.913Z,114.39
2022-08-07T18:10:33.663Z,115.89
2022-08-07T18:15:51.826Z,118.57
2022-08-07T18:21:42.000Z,-5.05
2022-08-07T18:26:40.646Z,-1.90
2022-08-07T18:31:59.849Z,0.42
2022-08-07T18:38:57.298Z,0.70
2022-08-07T18:42:58.189Z,2.28
2022-08-07T18:48:10.317Z,3.35
2022-08-07T18:53:56.129Z,3.96
2022-08-07T18:59:09.833Z,6.25
2022-08-07T19:04:59.421Z,7.61
2022-08-07T19:10:21.296Z,8.36
2022-08-07T19:16:05.169Z,9.22
2022-08-07T19:21:09.145Z,9.83
2022-08-07T19:26:22.608Z,11.00
2022-08-07T19:32:03.453Z,11.14
2022-08-07T19:37:09.909Z,11.92
2022-08-07T19:42:25.027Z,11.49
2022-08-07T19:47:36.400Z,11.96
2022-08-07T19:52:41.967Z,11.82
2022-08-07T19:58:04.682Z,11.80
2022-08-07T20:03:35.687Z,12.10
2022-08-07T20:08:48.697Z,12.30
2022-08-07T20:13:58.420Z,11.78
2022-08-07T20:19:04.788Z,11.59
2022-08-07T20:24:15.058Z,11.48
2022-08-07T20:29:48.906Z,11.60
2022-08-07T20:34:51.667Z,11.27
2022-08-07T20:40:03.936Z,10.97
2022-08-07T20:45:33.602Z,10.94
2022-08-07T20:50:36.715Z,10.97
2022-08-07T20:55:41.491Z,11.00
2022-08-07T21:00:52.422Z,10.85
2022-08-07T21:06:03.809Z,10.57
2022-08-07T21:11:40.145Z,10.13
2022-08-07T21:18:00.412Z,9.81
2022-08-07T21:22:25.515Z,9.12
2022-08-07T21:27:46.987Z,9.30
2022-08-07T21:33:01.096Z,8.89
2022-08-07T21:38:19.612Z,8.49
2022-08-07T21:43:47.576Z,8.13
2022-08-07T21:49:14.953Z,8.36
2022-08-07T21:54:27.860Z,8.24
2022-08-07T22:00:04.873Z,8.00
2022-08-07T22:05:08.193Z,7.97
2022-08-07T22:10:28.626Z,7.70
2022-08-07T22:16:44.090Z,7.66
2022-08-07T22:21:16.645Z,7.59
2022-08-07T22:26:31.361Z,7.49
2022-08-07T22:31:56.016Z,7.37
2022-08-07T22:37:14.861Z,7.23
2022-08-07T22:42:26.077Z,6.67
2022-08-07T22:48:04.200Z,6.71
2022-08-07T22:54:08.867Z,6.64
2022-08-07T22:59:32.713Z,6.69
2022-08-07T23:06:07.396Z,6.53
2022-08-07T23:10:41.330Z,6.60
2022-08-07T23:16:05.639Z,6.32
2022-08-07T23:21:30.491Z,6.55
2022-08-07T23:26:54.820Z,6.70
2022-08-07T23:34:18.929Z,6.39
2022-08-07T23:38:01.341Z,6.42
2022-08-07T23:43:21.548Z,6.59
2022-08-07T23:48:41.116Z,6.64
2022-08-07T23:53:51.000Z,6.53
